Time;durP1;ratioP1;P1;durP2;ratioP2;P2;SDS_P1;SDS_P2;PMS_P1;PMS_P2;Temp;Humidity;BMP_temperature;BMP_pressure;BME280_temperature;BME280_humidity;BME280_pressure;Samples;Min_cycle;Max_cycle;Signal;HPM_P1;HPM_P2
2023/10/02 00:01:17;;;;;;;13.23;6.88;;;15.60;99.90;;;;;;3111729;23;20238;-83
2023/10/02 00:06:40;;;;;;;12.40;7.25;;;15.70;99.90;;;;;;5091925;23;20263;-85
2023/10/02 00:09:06;;;;;;;14.57;7.30;;;15.70;99.90;;;;;;4980501;28;20200;-84
2023/10/02 00:11:45;;;;;;;12.52;7.50;;;15.80;99.90;;;;;;4996121;28;20192;-87
2023/10/02 00:14:19;;;;;;;13.95;7.38;;;15.80;99.90;;;;;;4994940;28;20164;-85
2023/10/02 00:17:00;;;;;;;13.20;7.82;;;15.80;99.90;;;;;;4986279;23;20236;-85
2023/10/02 00:19:29;;;;;;;14.48;7.53;;;15.80;99.90;;;;;;4970843;29;20253;-85
2023/10/02 00:22:08;;;;;;;15.20;7.50;;;15.80;99.90;;;;;;4963799;29;20178;-84
2023/10/02 00:24:39;;;;;;;15.00;7.78;;;15.90;99.90;;;;;;4963460;29;20177;-85
2023/10/02 00:27:08;;;;;;;13.30;7.45;;;15.90;99.90;;;;;;4963044;29;20497;-85
2023/10/02 00:29:35;;;;;;;13.70;7.53;;;15.90;99.90;;;;;;4963525;29;20217;-85
2023/10/02 00:32:11;;;;;;;13.30;7.45;;;16.00;99.90;;;;;;4962915;29;20177;-85
2023/10/02 00:38:08;;;;;;;15.70;8.48;;;16.00;99.90;;;;;;5009375;23;20295;-83
2023/10/02 00:40:44;;;;;;;15.63;8.40;;;16.00;99.90;;;;;;5004647;23;20240;-84
2023/10/02 00:48:25;;;;;;;14.50;7.88;;;16.10;99.90;;;;;;5017439;23;20240;-83
2023/10/02 00:51:05;;;;;;;14.75;8.20;;;16.20;99.90;;;;;;5052173;23;20244;-85
2023/10/02 00:53:45;;;;;;;13.07;7.30;;;16.10;99.90;;;;;;4967054;28;20199;-83
2023/10/02 00:56:20;;;;;;;13.65;7.18;;;16.20;99.90;;;;;;4984191;23;20239;-84
2023/10/02 00:59:14;;;;;;;13.10;7.82;;;16.20;99.90;;;;;;4977939;28;20264;-84
2023/10/02 01:01:43;;;;;;;15.15;7.70;;;16.20;99.90;;;;;;4984447;23;20730;-83
2023/10/02 01:04:24;;;;;;;14.45;8.15;;;16.20;99.90;;;;;;4993033;23;20232;-83
2023/10/02 01:06:54;;;;;;;13.98;7.72;;;16.20;99.90;;;;;;4980536;28;20169;-85
2023/10/02 01:09:30;;;;;;;14.07;8.32;;;16.20;99.90;;;;;;4983120;23;20240;-85
2023/10/02 01:12:12;;;;;;;15.10;7.97;;;16.20;99.90;;;;;;4977740;29;20212;-83
2023/10/02 01:15:06;;;;;;;14.18;7.30;;;16.20;99.90;;;;;;4979065;28;20180;-84
2023/10/02 01:17:34;;;;;;;15.10;7.90;;;16.20;99.90;;;;;;4991973;23;20225;-84
2023/10/02 01:20:08;;;;;;;15.07;8.45;;;16.20;99.90;;;;;;4980930;28;20192;-86
2023/10/02 01:22:42;;;;;;;13.65;7.78;;;16.20;99.90;;;;;;4980519;28;20168;-86
2023/10/02 01:25:47;;;;;;;15.07;7.68;;;16.20;99.90;;;;;;4979930;23;20269;-85
2023/10/02 01:28:14;;;;;;;15.52;7.78;;;16.10;99.90;;;;;;4940211;29;20183;-84
2023/10/02 01:30:55;;;;;;;15.50;8.43;;;16.20;99.90;;;;;;4954224;23;20234;-84
2023/10/02 01:33:46;;;;;;;14.70;8.10;;;16.20;99.90;;;;;;5000276;23;20247;-84
2023/10/02 01:36:12;;;;;;;13.60;7.70;;;16.20;99.90;;;;;;4979069;29;20153;-85
2023/10/02 01:38:44;;;;;;;14.50;7.57;;;16.20;99.90;;;;;;4993077;23;20252;-84
2023/10/02 01:41:15;;;;;;;16.73;8.40;;;16.20;99.90;;;;;;4985203;23;20248;-84
2023/10/02 01:43:45;;;;;;;15.48;8.15;;;16.20;99.90;;;;;;4978897;29;20181;-84
2023/10/02 01:46:17;;;;;;;13.18;7.90;;;16.20;99.90;;;;;;4978852;29;20165;-84
2023/10/02 01:48:51;;;;;;;17.73;8.15;;;16.20;99.90;;;;;;4978708;29;20177;-84
2023/10/02 01:51:28;;;;;;;16.08;7.60;;;16.20;99.90;;;;;;4979065;29;20262;-84
2023/10/02 01:54:19;;;;;;;16.23;8.18;;;16.20;99.90;;;;;;5024466;23;21547;-86
2023/10/02 01:56:49;;;;;;;15.38;8.20;;;16.20;99.90;;;;;;5005350;23;20147;-84
2023/10/02 01:59:19;;;;;;;15.57;7.93;;;16.20;99.90;;;;;;5030518;23;20239;-85
2023/10/02 02:02:12;;;;;;;14.95;8.10;;;16.10;99.90;;;;;;4981124;28;20173;-84
2023/10/02 02:04:46;;;;;;;16.27;8.23;;;16.10;99.90;;;;;;4980275;23;20237;-86
2023/10/02 02:07:20;;;;;;;14.15;8.32;;;16.10;99.90;;;;;;4999940;23;20251;-84
2023/10/02 02:09:48;;;;;;;14.55;8.35;;;16.10;99.90;;;;;;4984659;23;20391;-85
2023/10/02 02:12:44;;;;;;;16.38;8.15;;;16.10;99.90;;;;;;4962789;29;20178;-83
2023/10/02 02:15:21;;;;;;;13.35;8.05;;;16.10;99.90;;;;;;4989460;23;20250;-84
2023/10/02 02:17:49;;;;;;;12.55;7.95;;;16.10;99.90;;;;;;5003939;23;20266;-83
2023/10/02 02:20:43;;;;;;;13.77;8.30;;;16.10;99.90;;;;;;4981594;28;20163;-93
2023/10/02 02:23:14;;;;;;;17.80;8.80;;;16.10;99.90;;;;;;4998017;28;20928;-83
2023/10/02 02:25:42;;;;;;;15.75;7.97;;;16.10;99.90;;;;;;5004447;23;20255;-84
2023/10/02 02:28:09;;;;;;;14.32;7.90;;;16.10;99.90;;;;;;4997857;28;20172;-86
2023/10/02 02:30:52;;;;;;;16.20;8.38;;;16.10;99.90;;;;;;4996399;23;20228;-84
2023/10/02 02:33:38;;;;;;;16.13;8.02;;;16.10;99.90;;;;;;4970885;23;20260;-85
2023/10/02 02:36:21;;;;;;;16.60;8.18;;;16.10;99.90;;;;;;5190766;23;20219;31
2023/10/02 02:44:49;;;;;;;16.23;8.20;;;16.00;99.90;;;;;;5276086;23;20235;-85
2023/10/02 02:47:50;;;;;;;12.85;7.97;;;15.90;99.90;;;;;;5092414;23;20186;-87
2023/10/02 02:53:16;;;;;;;14.40;7.80;;;16.00;99.90;;;;;;5072639;23;20240;-92
2023/10/02 02:56:16;;;;;;;13.90;8.05;;;15.90;99.90;;;;;;5256889;23;20264;-84
2023/10/02 02:58:50;;;;;;;15.15;8.52;;;15.90;99.90;;;;;;4935823;29;20272;-83
2023/10/02 03:01:21;;;;;;;15.57;8.40;;;15.80;99.90;;;;;;4958412;29;20158;-82
2023/10/02 03:04:11;;;;;;;13.88;8.05;;;15.80;99.90;;;;;;4952361;29;20166;-84
2023/10/02 03:06:38;;;;;;;16.63;8.43;;;15.70;99.90;;;;;;4947496;29;20245;-83
2023/10/02 03:09:37;;;;;;;15.30;8.18;;;15.70;99.90;;;;;;5105371;23;20247;31
2023/10/02 03:15:00;;;;;;;16.08;8.43;;;15.60;99.90;;;;;;520766;26;20470;-81
2023/10/02 03:17:41;;;;;;;15.90;8.48;;;15.60;99.90;;;;;;5243532;23;20228;31
2023/10/02 03:20:29;;;;;;;16.33;7.68;;;15.50;99.90;;;;;;4937411;23;20207;31
2023/10/02 03:22:55;;;;;;;12.35;7.55;;;15.60;99.90;;;;;;4955998;23;20230;-84
2023/10/02 03:27:54;;;;;;;16.55;8.50;;;15.40;99.90;;;;;;4996745;28;20232;-83
2023/10/02 03:30:43;;;;;;;16.00;8.35;;;15.40;99.90;;;;;;5025109;23;20327;-86
2023/10/02 03:33:20;;;;;;;17.92;8.65;;;15.40;99.90;;;;;;5128645;23;20308;-87
2023/10/02 03:36:08;;;;;;;14.05;8.10;;;15.40;99.90;;;;;;4977403;29;20511;-84
2023/10/02 03:38:41;;;;;;;14.95;7.72;;;15.40;99.90;;;;;;5187979;23;20233;-84
2023/10/02 03:50:44;;;;;;;16.38;9.07;;;15.20;99.90;;;;;;5043753;23;20234;-82
2023/10/02 03:53:12;;;;;;;14.70;8.63;;;15.20;99.90;;;;;;5010037;23;20210;-84
2023/10/02 03:56:36;;;;;;;15.10;8.93;;;15.20;99.90;;;;;;5278902;23;20229;-86
2023/10/02 03:58:53;;;;;;;14.73;7.72;;;15.20;99.90;;;;;;4982833;28;20185;-84
2023/10/02 04:06:33;;;;;;;13.68;8.13;;;15.00;99.90;;;;;;4980498;28;20260;-95
2023/10/02 04:12:06;;;;;;;14.70;8.40;;;15.00;99.90;;;;;;4983296;28;20208;-88
2023/10/02 04:14:48;;;;;;;15.48;8.20;;;14.90;99.90;;;;;;4935284;29;20178;-91
2023/10/02 04:22:31;;;;;;;14.10;8.63;;;14.80;99.90;;;;;;6056992;23;20214;-83
2023/10/02 04:25:35;;;;;;;13.68;7.97;;;14.80;99.90;;;;;;4961810;28;20189;-83
2023/10/02 04:28:00;;;;;;;13.20;8.18;;;14.80;99.90;;;;;;4963052;28;20166;-84
2023/10/02 04:32:04;;;;;;;12.30;7.70;;;14.80;99.90;;;;;;5153234;23;20232;-85
2023/10/02 04:35:03;;;;;;;14.23;8.27;;;14.70;99.90;;;;;;5099788;23;20248;-85
2023/10/02 04:37:32;;;;;;;16.42;8.13;;;14.70;99.90;;;;;;4962952;29;20185;-84
2023/10/02 04:40:22;;;;;;;18.25;8.73;;;14.80;99.90;;;;;;5012902;23;20219;-84
2023/10/02 04:43:19;;;;;;;14.20;8.32;;;14.80;99.90;;;;;;5099663;23;20243;-84
2023/10/02 04:45:47;;;;;;;17.20;8.68;;;14.80;99.90;;;;;;5043766;23;20245;-84
2023/10/02 04:48:14;;;;;;;16.17;8.93;;;14.80;99.90;;;;;;4964365;29;20174;-85
2023/10/02 04:50:45;;;;;;;13.02;8.32;;;14.80;99.90;;;;;;4963910;29;20277;-84
2023/10/02 04:55:43;;;;;;;14.63;7.88;;;14.80;99.90;;;;;;4964621;28;20180;-84
2023/10/02 04:58:19;;;;;;;17.73;8.50;;;14.80;99.90;;;;;;4965086;28;20173;-84
2023/10/02 05:03:54;;;;;;;16.23;8.50;;;14.80;99.90;;;;;;4964812;28;20174;-85
2023/10/02 05:14:53;;;;;;;14.45;8.00;;;14.80;99.90;;;;;;4887190;29;20184;-85
2023/10/02 05:17:38;;;;;;;15.23;8.07;;;14.70;99.90;;;;;;4955601;29;20196;-85
2023/10/02 05:20:07;;;;;;;17.77;7.82;;;14.70;99.90;;;;;;4963045;29;20193;-85
2023/10/02 05:22:36;;;;;;;14.25;8.13;;;14.70;99.90;;;;;;4964204;28;20243;-83
2023/10/02 05:25:07;;;;;;;15.88;8.70;;;14.60;99.90;;;;;;4963067;29;20188;-85
2023/10/02 05:27:36;;;;;;;15.27;8.63;;;14.60;99.90;;;;;;4963176;29;20232;-85
2023/10/02 05:30:14;;;;;;;14.43;8.35;;;14.60;99.90;;;;;;4952703;29;20560;-84
2023/10/02 05:32:41;;;;;;;15.10;8.45;;;14.60;99.90;;;;;;4976569;29;20261;-83
2023/10/02 05:37:41;;;;;;;14.00;7.85;;;14.60;99.90;;;;;;4976034;29;20216;-84
2023/10/02 05:48:27;;;;;;;14.85;8.40;;;14.60;99.90;;;;;;4977106;29;20173;-84
2023/10/02 05:51:09;;;;;;;15.95;8.38;;;14.60;99.90;;;;;;4946367;29;20213;-84
2023/10/02 05:53:53;;;;;;;15.25;8.32;;;14.60;99.90;;;;;;4960991;29;20157;-82
2023/10/02 05:56:19;;;;;;;15.80;8.55;;;14.60;99.90;;;;;;4960744;29;20158;-84
2023/10/02 05:58:49;;;;;;;12.88;7.60;;;14.60;99.90;;;;;;4960796;29;20186;-84
2023/10/02 06:01:19;;;;;;;15.45;8.23;;;14.70;99.90;;;;;;4981157;23;20237;-84
2023/10/02 06:03:57;;;;;;;14.18;7.57;;;14.70;99.90;;;;;;4980185;28;20169;-83
2023/10/02 06:06:24;;;;;;;16.17;8.30;;;14.80;99.90;;;;;;4977760;28;20184;-83
2023/10/02 06:08:54;;;;;;;14.38;8.15;;;14.80;99.90;;;;;;4979863;28;20177;-85
2023/10/02 06:11:25;;;;;;;14.77;8.50;;;14.90;99.90;;;;;;4980746;28;20196;-83
2023/10/02 06:14:09;;;;;;;18.00;8.35;;;15.00;99.90;;;;;;5003851;23;20229;-84
2023/10/02 06:16:35;;;;;;;13.45;8.32;;;15.00;99.90;;;;;;4998053;28;20171;-85
2023/10/02 06:19:01;;;;;;;18.60;8.90;;;15.10;99.90;;;;;;4983823;23;20252;-84
2023/10/02 06:21:30;;;;;;;12.88;8.27;;;15.20;99.90;;;;;;4978654;28;20169;-84
2023/10/02 06:24:00;;;;;;;18.15;9.13;;;15.30;99.90;;;;;;4976263;29;20185;-84
2023/10/02 06:26:29;;;;;;;13.60;8.05;;;15.40;99.90;;;;;;5007676;23;20271;-86
2023/10/02 06:29:16;;;;;;;13.25;7.97;;;15.40;99.90;;;;;;4958526;29;20184;-85
2023/10/02 06:31:50;;;;;;;15.10;8.30;;;15.50;99.90;;;;;;4976130;29;20214;-91
2023/10/02 06:34:18;;;;;;;15.45;8.82;;;15.60;99.90;;;;;;4960991;29;20179;-86
2023/10/02 06:36:48;;;;;;;17.90;8.55;;;15.70;99.90;;;;;;4960776;29;20169;-89
2023/10/02 06:39:21;;;;;;;16.23;8.63;;;15.80;99.90;;;;;;4975581;29;20208;-93
2023/10/02 06:41:48;;;;;;;17.60;8.05;;;15.90;99.90;;;;;;4976589;29;20234;-90
2023/10/02 06:44:52;;;;;;;15.43;7.75;;;16.00;99.90;;;;;;4971412;29;20196;-83
2023/10/02 06:47:34;;;;;;;16.55;8.00;;;16.10;99.90;;;;;;4945783;29;20173;-85
2023/10/02 06:50:55;;;;;;;15.02;8.00;;;16.10;99.90;;;;;;4957028;29;20261;-86
2023/10/02 06:52:53;;;;;;;13.75;7.80;;;16.20;99.90;;;;;;4960922;29;20181;-87
2023/10/02 06:55:24;;;;;;;12.68;7.63;;;16.30;99.90;;;;;;4965706;23;20308;-92
2023/10/02 06:57:53;;;;;;;14.25;8.23;;;16.40;99.90;;;;;;4975219;29;20161;-92
2023/10/02 07:00:21;;;;;;;17.65;8.60;;;16.40;99.90;;;;;;4976228;29;20201;-83
2023/10/02 07:02:56;;;;;;;17.52;8.35;;;16.40;99.90;;;;;;4973825;29;20181;-84
2023/10/02 07:05:35;;;;;;;14.23;8.02;;;16.50;99.90;;;;;;4973082;29;20200;-86
2023/10/02 07:08:18;;;;;;;16.23;8.50;;;16.50;99.90;;;;;;4974847;29;20196;-89
2023/10/02 07:10:50;;;;;;;15.95;8.50;;;16.60;99.90;;;;;;4943961;23;20237;-84
2023/10/02 07:13:23;;;;;;;16.48;8.02;;;16.60;99.90;;;;;;4955300;29;20185;-83
2023/10/02 07:16:08;;;;;;;14.50;7.90;;;16.70;99.90;;;;;;4939717;29;20170;-86
2023/10/02 07:21:09;;;;;;;15.82;8.85;;;16.70;99.90;;;;;;5000272;23;20299;-89
2023/10/02 07:23:39;;;;;;;16.83;8.18;;;16.80;99.90;;;;;;5010057;23;20248;-96
2023/10/02 07:26:05;;;;;;;14.15;7.53;;;16.80;99.90;;;;;;5008807;23;20244;-88
2023/10/02 07:28:52;;;;;;;15.77;8.68;;;16.90;99.90;;;;;;4998496;23;20259;-84
2023/10/02 07:31:27;;;;;;;15.65;8.68;;;17.00;99.90;;;;;;4980517;23;20251;-90
2023/10/02 07:33:57;;;;;;;13.68;8.15;;;17.00;99.90;;;;;;4986357;28;20171;-85
2023/10/02 07:36:30;;;;;;;15.40;8.15;;;17.10;99.90;;;;;;4985128;28;20480;-87
2023/10/02 07:38:58;;;;;;;18.40;8.73;;;17.20;99.90;;;;;;4967331;28;20172;-84
2023/10/02 07:41:23;;;;;;;16.92;8.63;;;17.20;99.90;;;;;;4964919;28;20181;-85
2023/10/02 07:43:54;;;;;;;19.13;8.77;;;17.30;99.90;;;;;;4981727;28;20177;-84
2023/10/02 07:46:22;;;;;;;16.70;9.30;;;17.30;99.90;;;;;;4983071;28;20200;-84
2023/10/02 07:48:59;;;;;;;17.10;8.73;;;17.40;99.90;;;;;;4965549;28;20276;-84
2023/10/02 07:51:30;;;;;;;14.85;8.48;;;17.40;99.90;;;;;;4965324;28;20184;-89
2023/10/02 07:54:03;;;;;;;15.98;8.30;;;17.50;99.90;;;;;;4964057;28;20180;-83
2023/10/02 07:56:30;;;;;;;16.80;9.00;;;17.50;99.90;;;;;;4981746;28;20161;-85
2023/10/02 07:59:00;;;;;;;17.75;8.93;;;17.60;99.90;;;;;;4964130;28;20566;-86
2023/10/02 08:01:27;;;;;;;15.50;9.27;;;17.60;99.90;;;;;;4981598;28;20200;-83
2023/10/02 08:04:01;;;;;;;16.40;8.10;;;17.70;99.90;;;;;;4963582;28;20627;-85
2023/10/02 08:11:50;;;;;;;16.67;8.82;;;17.80;99.90;;;;;;4980326;28;20227;-85
2023/10/02 08:17:18;;;;;;;15.60;8.93;;;18.00;99.90;;;;;;4979927;28;20184;-83
2023/10/02 08:19:54;;;;;;;14.25;8.68;;;18.10;99.90;;;;;;4962025;28;20207;-84
2023/10/02 08:22:36;;;;;;;16.25;8.38;;;18.10;99.90;;;;;;4979626;28;20164;-84
2023/10/02 08:25:13;;;;;;;13.70;8.60;;;18.20;99.90;;;;;;4969066;28;20248;-84
2023/10/02 08:27:55;;;;;;;14.52;8.05;;;18.30;99.90;;;;;;4978238;28;20184;-85
2023/10/02 08:30:31;;;;;;;15.73;8.60;;;18.30;99.90;;;;;;4976435;29;20228;-83
2023/10/02 08:33:05;;;;;;;16.80;8.88;;;18.50;99.90;;;;;;4978329;29;20183;-84
2023/10/02 08:35:37;;;;;;;14.93;8.57;;;18.50;99.90;;;;;;4978180;29;20184;-85
2023/10/02 08:38:21;;;;;;;16.52;8.52;;;18.60;99.90;;;;;;4977516;28;20172;-87
2023/10/02 08:40:57;;;;;;;18.38;8.50;;;18.70;99.90;;;;;;4973921;29;20181;-84
2023/10/02 08:43:32;;;;;;;20.30;9.07;;;18.80;99.90;;;;;;4978971;28;20155;-84
2023/10/02 08:46:04;;;;;;;14.57;8.30;;;19.00;99.90;;;;;;4975801;29;20195;-89
2023/10/02 08:48:31;;;;;;;17.65;8.50;;;19.10;99.90;;;;;;4974393;28;20273;-84
2023/10/02 08:51:00;;;;;;;16.33;8.60;;;19.20;99.90;;;;;;4960330;29;20237;-83
2023/10/02 08:53:26;;;;;;;18.52;9.18;;;19.40;99.90;;;;;;4974867;29;20177;-95
2023/10/02 08:56:23;;;;;;;17.13;9.48;;;19.60;99.90;;;;;;4976165;29;20264;-85
2023/10/02 08:59:16;;;;;;;15.23;9.02;;;19.70;99.90;;;;;;4971829;28;20236;-87
2023/10/02 09:01:37;;;;;;;16.40;8.43;;;19.90;99.90;;;;;;4970104;29;20188;-88
2023/10/02 09:07:15;;;;;;;16.25;9.55;;;20.00;99.90;;;;;;4974449;28;20221;-91
2023/10/02 09:09:55;;;;;;;17.27;8.93;;;19.90;99.90;;;;;;4972257;29;20355;-84
2023/10/02 09:12:23;;;;;;;16.80;9.63;;;19.90;99.90;;;;;;4975220;28;20162;-92
2023/10/02 09:14:51;;;;;;;15.00;8.60;;;19.90;99.90;;;;;;4976156;29;20181;-84
2023/10/02 09:17:22;;;;;;;19.10;9.85;;;19.90;99.90;;;;;;4976655;28;20177;-88
2023/10/02 09:20:07;;;;;;;15.07;8.85;;;19.90;99.90;;;;;;4974833;28;20814;-85
2023/10/02 09:22:38;;;;;;;16.45;8.85;;;20.00;99.90;;;;;;4973622;28;20154;-85
2023/10/02 09:25:13;;;;;;;18.20;9.82;;;20.10;99.90;;;;;;4972846;29;20177;-84
2023/10/02 09:28:00;;;;;;;17.05;8.35;;;20.20;99.90;;;;;;4974407;29;20179;-91
2023/10/02 09:33:07;;;;;;;16.83;8.90;;;20.30;99.90;;;;;;4970674;28;20249;-84
2023/10/02 09:35:41;;;;;;;19.83;9.55;;;20.20;99.90;;;;;;4957430;29;20184;-84
2023/10/02 09:38:10;;;;;;;15.68;9.00;;;20.00;99.90;;;;;;4971217;28;20177;-95
2023/10/02 09:43:33;;;;;;;15.82;8.82;;;20.00;99.90;;;;;;4989734;28;20192;-95
2023/10/02 09:46:16;;;;;;;17.10;8.48;;;20.10;99.90;;;;;;4978731;28;20173;-91
2023/10/02 09:49:19;;;;;;;15.30;8.60;;;20.30;99.90;;;;;;4986522;28;20171;-86
2023/10/02 09:52:15;;;;;;;15.85;8.82;;;20.40;99.90;;;;;;4968044;28;20291;-93
2023/10/02 09:54:46;;;;;;;14.98;8.85;;;20.40;99.90;;;;;;4973052;28;20175;-83
2023/10/02 09:58:04;;;;;;;21.10;9.52;;;20.30;99.90;;;;;;5150489;23;20240;-85
2023/10/02 10:00:42;;;;;;;17.30;8.75;;;20.20;99.90;;;;;;4971767;29;20184;-85
2023/10/02 10:06:16;;;;;;;20.75;9.27;;;20.20;99.90;;;;;;5138967;23;20245;-84
2023/10/02 10:09:34;;;;;;;15.93;8.68;;;20.30;99.90;;;;;;4937927;29;20192;-85
2023/10/02 10:12:17;;;;;;;19.90;9.68;;;20.50;99.90;;;;;;4955088;29;20229;-89
2023/10/02 10:14:41;;;;;;;17.33;8.95;;;20.70;99.90;;;;;;4950114;29;20261;-96
2023/10/02 10:17:49;;;;;;;21.45;9.07;;;20.80;99.90;;;;;;4951811;29;20161;-91
2023/10/02 10:23:31;;;;;;;15.73;8.75;;;21.20;99.90;;;;;;4958031;29;20297;-90
2023/10/02 10:26:44;;;;;;;16.00;8.35;;;21.40;99.90;;;;;;4934460;29;20262;-92
2023/10/02 10:30:10;;;;;;;13.70;8.18;;;21.40;99.90;;;;;;4933343;29;20202;-95
2023/10/02 10:32:36;;;;;;;16.33;8.27;;;21.60;99.90;;;;;;5004908;23;20218;-89
2023/10/02 10:35:17;;;;;;;15.98;9.25;;;21.80;99.90;;;;;;4954175;29;20196;-93
2023/10/02 10:40:59;;;;;;;16.63;8.63;;;21.90;99.90;;;;;;5023399;23;20244;-96
2023/10/02 10:43:43;;;;;;;17.98;9.10;;;22.00;99.90;;;;;;4980059;28;20658;-95
2023/10/02 10:46:18;;;;;;;18.25;8.95;;;22.00;99.90;;;;;;4988611;28;20170;-96
2023/10/02 10:48:53;;;;;;;14.27;8.82;;;22.10;99.90;;;;;;4969196;28;20173;-93
2023/10/02 10:51:20;;;;;;;15.82;8.88;;;22.10;99.90;;;;;;4969035;28;20223;-94
2023/10/02 10:53:52;;;;;;;17.92;8.75;;;22.00;99.90;;;;;;4945571;28;20188;-96
2023/10/02 10:56:43;;;;;;;17.42;8.85;;;22.10;99.90;;;;;;4973431;28;20189;-94
2023/10/02 10:59:12;;;;;;;14.95;8.30;;;22.10;99.90;;;;;;4977956;28;20181;-93
2023/10/02 11:02:12;;;;;;;15.43;8.45;;;22.20;99.90;;;;;;5190458;23;20240;-96
2023/10/02 11:07:24;;;;;;;17.58;8.20;;;22.40;99.90;;;;;;5259815;23;20233;-84
2023/10/02 11:10:16;;;;;;;19.05;9.18;;;22.40;99.90;;;;;;4922109;29;20257;-87
2023/10/02 11:13:08;;;;;;;19.13;8.77;;;22.50;99.90;;;;;;4939356;29;20172;-91
2023/10/02 11:15:46;;;;;;;17.23;8.57;;;22.60;99.90;;;;;;4948535;29;20663;-84
2023/10/02 11:18:28;;;;;;;17.73;8.63;;;22.60;99.90;;;;;;4936808;29;20177;-94
2023/10/02 11:20:55;;;;;;;18.08;8.70;;;22.60;99.90;;;;;;4935932;29;20652;-88
2023/10/02 11:23:44;;;;;;;14.43;8.68;;;22.60;99.90;;;;;;4982229;23;20250;-92
2023/10/02 11:26:23;;;;;;;17.27;8.80;;;22.60;99.90;;;;;;4975612;28;20181;-84
2023/10/02 11:28:49;;;;;;;14.50;8.65;;;22.70;99.90;;;;;;4987858;23;20240;-84
2023/10/02 11:31:31;;;;;;;13.82;8.23;;;22.80;99.90;;;;;;4975349;28;20298;-90
2023/10/02 11:34:08;;;;;;;13.98;7.93;;;23.00;99.90;;;;;;4992683;28;20181;-85
2023/10/02 11:37:17;;;;;;;17.35;8.30;;;23.00;99.90;;;;;;4978853;28;20246;-85
2023/10/02 11:39:44;;;;;;;18.10;8.52;;;23.20;99.90;;;;;;4974160;28;20207;-84
2023/10/02 11:42:19;;;;;;;14.93;7.68;;;23.30;99.90;;;;;;4970987;28;20181;-86
2023/10/02 11:44:45;;;;;;;14.23;8.35;;;23.40;99.90;;;;;;4972511;28;20168;-89
2023/10/02 11:47:13;;;;;;;14.30;8.02;;;23.40;99.90;;;;;;4974570;28;20244;-95
2023/10/02 11:49:40;;;;;;;15.60;7.63;;;23.50;99.90;;;;;;4973910;28;20235;-86
2023/10/02 11:54:39;;;;;;;16.50;7.95;;;23.70;99.90;;;;;;4929458;29;20293;-88
2023/10/02 11:57:12;;;;;;;14.02;8.00;;;23.70;99.90;;;;;;4912052;29;20183;-87
2023/10/02 11:59:42;;;;;;;15.07;8.20;;;23.70;99.90;;;;;;4910806;29;20187;-86
2023/10/02 12:02:18;;;;;;;12.68;7.93;;;23.70;99.90;;;;;;4944952;23;20241;-86
2023/10/02 12:04:44;;;;;;;14.95;7.88;;;23.80;99.90;;;;;;4949689;29;20217;-87
2023/10/02 12:07:31;;;;;;;16.02;8.20;;;23.80;99.90;;;;;;4955535;29;20200;-88
2023/10/02 12:09:57;;;;;;;14.93;8.13;;;23.90;99.90;;;;;;4970905;23;20312;-89
2023/10/02 12:12:24;;;;;;;17.73;7.90;;;24.00;99.90;;;;;;4980034;28;20207;-86
2023/10/02 12:14:59;;;;;;;15.27;7.85;;;24.00;99.90;;;;;;5008195;23;20237;-89
2023/10/02 12:17:36;;;;;;;13.68;7.43;;;24.10;99.90;;;;;;4973967;29;20173;-93
2023/10/02 12:22:47;;;;;;;12.98;7.32;;;24.20;99.90;;;;;;5349045;23;20272;-87
2023/10/02 12:25:18;;;;;;;12.23;7.35;;;24.20;99.90;;;;;;5007232;23;20232;-87
2023/10/02 12:27:57;;;;;;;15.13;7.65;;;24.20;99.90;;;;;;4976098;29;20178;-95
2023/10/02 12:30:23;;;;;;;11.93;7.28;;;24.20;99.90;;;;;;4975184;29;20216;-86
2023/10/02 12:33:09;;;;;;;15.40;7.90;;;24.00;99.90;;;;;;5283149;23;20236;-85
2023/10/02 12:35:36;;;;;;;12.65;7.55;;;23.80;99.90;;;;;;4977606;23;20237;-85
2023/10/02 12:38:08;;;;;;;13.50;7.95;;;23.70;99.90;;;;;;4978242;23;20233;-85
2023/10/02 12:40:34;;;;;;;13.95;7.78;;;23.60;99.90;;;;;;4977975;29;20188;-85
2023/10/02 12:43:03;;;;;;;12.90;8.00;;;23.60;99.90;;;;;;5251666;23;20243;-85
2023/10/02 12:49:21;;;;;;;15.07;7.13;;;23.40;99.90;;;;;;4899330;29;20290;-85
2023/10/02 12:52:12;;;;;;;12.20;6.88;;;23.40;99.90;;;;;;4898598;29;20202;-85
2023/10/02 12:54:52;;;;;;;11.63;7.45;;;23.40;99.90;;;;;;5062368;23;20229;-83
2023/10/02 13:00:17;;;;;;;16.10;7.82;;;23.40;99.90;;;;;;4975522;29;20217;-85
2023/10/02 13:02:44;;;;;;;15.32;7.95;;;23.30;99.90;;;;;;4976009;29;20216;-84
2023/10/02 13:05:12;;;;;;;14.23;7.53;;;23.20;99.90;;;;;;4960298;29;20189;-84
2023/10/02 13:07:58;;;;;;;12.18;7.63;;;23.20;99.90;;;;;;4960356;29;20213;-84
2023/10/02 13:10:25;;;;;;;13.18;7.57;;;23.10;99.90;;;;;;4958202;29;20204;-86
2023/10/02 13:12:51;;;;;;;14.90;7.65;;;23.10;99.90;;;;;;4959346;29;20189;-86
2023/10/02 13:15:16;;;;;;;15.45;7.55;;;23.00;99.90;;;;;;4957774;29;20184;-86
2023/10/02 13:17:43;;;;;;;11.90;7.10;;;23.00;99.90;;;;;;4954089;29;20181;-85
2023/10/02 13:20:15;;;;;;;14.07;7.70;;;22.90;99.90;;;;;;4973996;29;20169;-86
2023/10/02 13:22:41;;;;;;;14.82;7.95;;;22.80;99.90;;;;;;4977428;29;20201;-84
2023/10/02 13:25:11;;;;;;;13.55;7.50;;;22.70;99.90;;;;;;4960374;29;20188;-84
2023/10/02 13:27:47;;;;;;;12.75;6.93;;;22.60;99.90;;;;;;4976622;29;20196;-84
2023/10/02 13:30:14;;;;;;;11.38;7.32;;;22.60;99.90;;;;;;4960804;29;20227;-84
2023/10/02 13:32:40;;;;;;;12.60;7.68;;;22.50;99.90;;;;;;4959380;29;20608;-85
2023/10/02 13:35:09;;;;;;;15.13;7.53;;;22.40;99.90;;;;;;5174008;23;20243;-86
2023/10/02 13:37:44;;;;;;;12.60;8.10;;;22.40;99.90;;;;;;4962055;28;20184;-85
2023/10/02 13:40:31;;;;;;;12.32;7.45;;;22.40;99.90;;;;;;4990005;23;20179;-85
2023/10/02 13:42:58;;;;;;;14.73;7.57;;;22.40;99.90;;;;;;4977309;28;20223;-84
2023/10/02 13:45:24;;;;;;;12.35;7.53;;;22.30;99.90;;;;;;4974030;28;20176;-84
2023/10/02 13:47:53;;;;;;;14.70;7.13;;;22.30;99.90;;;;;;4991904;28;20173;-87
2023/10/02 13:50:19;;;;;;;13.63;7.50;;;22.30;99.90;;;;;;4976130;28;20276;-82
2023/10/02 13:52:48;;;;;;;13.95;7.57;;;22.30;99.90;;;;;;4995859;28;20169;-84
2023/10/02 13:55:25;;;;;;;11.60;7.25;;;22.30;99.90;;;;;;5036208;23;20265;-84
2023/10/02 13:58:01;;;;;;;15.00;7.72;;;22.30;99.90;;;;;;5042831;23;20227;-85
2023/10/02 14:00:35;;;;;;;13.98;7.82;;;22.30;99.90;;;;;;4978024;28;20192;-85
2023/10/02 14:03:03;;;;;;;13.13;7.55;;;22.20;99.90;;;;;;4994031;28;20182;-85
2023/10/02 14:05:43;;;;;;;13.90;7.57;;;22.20;99.90;;;;;;4993688;28;20180;-83
2023/10/02 14:08:17;;;;;;;12.93;7.18;;;22.20;99.90;;;;;;4977083;28;20256;-83
2023/10/02 14:10:55;;;;;;;12.73;7.38;;;22.20;99.90;;;;;;4978513;23;20245;-84
2023/10/02 14:13:22;;;;;;;13.05;7.80;;;22.20;99.90;;;;;;4998006;23;20290;-84
2023/10/02 14:15:48;;;;;;;11.40;7.05;;;22.10;99.90;;;;;;4974273;28;20176;-84
2023/10/02 14:18:23;;;;;;;14.13;7.78;;;22.10;99.90;;;;;;4988969;28;20240;-85
2023/10/02 14:21:05;;;;;;;14.00;7.90;;;22.10;99.90;;;;;;4968803;28;20176;-85
2023/10/02 14:23:32;;;;;;;11.35;6.93;;;22.10;99.90;;;;;;4983555;28;20184;-84
2023/10/02 14:26:01;;;;;;;15.20;6.90;;;22.20;99.90;;;;;;4962818;28;20677;-85
2023/10/02 14:28:28;;;;;;;13.60;6.95;;;22.20;99.90;;;;;;4964313;28;20185;-86
2023/10/02 14:30:54;;;;;;;15.88;7.35;;;22.20;99.90;;;;;;4962934;28;20243;-85
2023/10/02 14:33:20;;;;;;;12.63;7.00;;;22.20;99.90;;;;;;4969611;28;20208;-87
2023/10/02 14:35:49;;;;;;;14.18;6.90;;;22.30;99.90;;;;;;4976928;28;20204;-85
2023/10/02 14:38:23;;;;;;;10.82;6.00;;;22.30;99.90;;;;;;4972124;28;20654;-95
2023/10/02 14:40:49;;;;;;;13.88;6.93;;;22.40;99.90;;;;;;4973333;28;20168;-86
2023/10/02 14:43:15;;;;;;;13.25;7.18;;;22.40;99.90;;;;;;4972747;28;20173;-84
2023/10/02 14:45:43;;;;;;;12.40;7.35;;;22.40;99.90;;;;;;4978919;23;20201;-84
2023/10/02 14:48:16;;;;;;;12.38;7.32;;;22.40;99.90;;;;;;4955453;29;20193;-85
2023/10/02 14:50:44;;;;;;;14.05;7.20;;;22.50;99.90;;;;;;4951616;29;20206;-83
2023/10/02 14:53:11;;;;;;;13.93;7.63;;;22.40;99.90;;;;;;4982196;23;20312;-83
2023/10/02 14:55:48;;;;;;;13.32;8.05;;;22.40;99.90;;;;;;5003760;23;20300;-87
2023/10/02 14:58:18;;;;;;;13.80;7.72;;;22.40;99.90;;;;;;4973269;29;20183;-83
2023/10/02 15:00:45;;;;;;;14.27;7.70;;;22.40;99.90;;;;;;4972532;28;20180;-85
2023/10/02 15:03:11;;;;;;;14.15;6.95;;;22.40;99.90;;;;;;4972758;29;20181;-84
2023/10/02 15:05:37;;;;;;;12.13;7.55;;;22.40;99.90;;;;;;4973620;29;20632;-85
2023/10/02 15:08:10;;;;;;;17.33;7.50;;;22.40;99.90;;;;;;4974394;29;20173;-83
2023/10/02 15:10:44;;;;;;;14.32;7.63;;;22.30;99.90;;;;;;4958866;29;20213;-86
2023/10/02 15:13:14;;;;;;;12.55;7.05;;;22.30;99.90;;;;;;4975505;28;20237;-84
2023/10/02 15:18:13;;;;;;;14.18;7.55;;;22.20;99.90;;;;;;5022419;23;20255;-84
2023/10/02 15:20:45;;;;;;;13.10;7.22;;;22.20;99.90;;;;;;5058470;23;20232;-84